Terminal Aerodrome Forecast
Issued by NWS Green Bay, WI

Home | Current Version | Previous Version | Text Only | Print | Product List | Glossary Off
Versions: 1 2 3 4 5 6 7 8 9 10 11 12 13 14 15 16 17 18 19 20 21 22 23 24 25 26 27 28 29 30 31 32 33 34 35 36

004
FTUS43 KGRB 271137
TAFGRB
TAF
KGRB 271137Z 2712/2812 18003KT 6SM BR SCT003 SCT080
      TEMPO 2712/2713 3SM BR
     FM271300 22004KT P6SM SCT015 SCT100
     FM271500 22008KT P6SM SCT030 SCT100
     FM272200 22007KT P6SM VCSH SCT040 BKN080
     FM280200 VRB03KT P6SM SCT040 BKN080 PROB30 2806/2812 3SM -SHRA
      BKN040=

USA.gov is the U.S. government's official web portal to all federal, state and local government web resources and services.